Time;durP1;ratioP1;P1;durP2;ratioP2;P2;SDS_P1;SDS_P2;PMS_P1;PMS_P2;Temp;Humidity;BMP_temperature;BMP_pressure;BME280_temperature;BME280_humidity;BME280_pressure;Samples;Min_cycle;Max_cycle;Signal;HPM_P1;HPM_P2
2023/09/11 00:01:53;;;;;;;11.00;6.40;;;;;;;19.22;100.00;101306.53;6225816;28;20050;-73
2023/09/11 00:04:54;;;;;;;9.23;5.60;;;;;;;19.17;100.00;101299.91;6225753;28;20050;-73
2023/09/11 00:07:56;;;;;;;7.22;5.35;;;;;;;19.09;100.00;101299.66;6225703;28;20053;-73
2023/09/11 00:10:58;;;;;;;9.93;5.60;;;;;;;19.09;100.00;101297.00;6226597;28;20050;-73
2023/09/11 00:14:01;;;;;;;7.97;5.07;;;;;;;19.06;100.00;101290.09;6230672;28;20108;-73
2023/09/11 00:17:02;;;;;;;9.85;5.90;;;;;;;19.07;100.00;101296.25;6230321;28;20046;-73
2023/09/11 00:20:09;;;;;;;8.15;5.28;;;;;;;19.04;100.00;101289.38;6230277;28;20053;-73
2023/09/11 00:23:11;;;;;;;8.75;5.65;;;;;;;19.01;100.00;101285.13;6230433;28;20426;-73
2023/09/11 00:26:13;;;;;;;8.35;5.35;;;;;;;18.99;100.00;101279.09;6230505;28;20061;-73
2023/09/11 00:29:15;;;;;;;10.68;6.70;;;;;;;18.96;100.00;101279.31;6230121;28;20136;-73
2023/09/11 00:32:17;;;;;;;9.25;5.45;;;;;;;18.97;100.00;101278.34;6230067;28;20050;-73
2023/09/11 00:35:18;;;;;;;10.35;6.10;;;;;;;18.93;100.00;101270.72;6230254;28;20054;-73
2023/09/11 00:38:20;;;;;;;10.38;5.80;;;;;;;18.93;100.00;101268.06;6229567;28;20354;-73
2023/09/11 00:41:21;;;;;;;9.10;5.63;;;;;;;18.88;100.00;101265.78;6229845;28;20049;-73
2023/09/11 00:44:24;;;;;;;10.90;5.55;;;;;;;18.83;100.00;101259.97;6229922;28;20060;-73
2023/09/11 00:47:26;;;;;;;9.82;5.97;;;;;;;18.76;100.00;101269.44;6230051;28;20056;-73
2023/09/11 00:50:28;;;;;;;10.63;5.55;;;;;;;18.72;100.00;101262.66;6229467;28;20058;-73
2023/09/11 00:53:30;;;;;;;9.07;6.40;;;;;;;18.69;100.00;101253.09;6229899;28;20053;-73
2023/09/11 00:56:31;;;;;;;10.05;6.53;;;;;;;18.72;100.00;101244.84;6229054;28;20048;-73
2023/09/11 00:59:34;;;;;;;9.93;6.07;;;;;;;18.72;100.00;101246.69;6229046;28;20469;-73
2023/09/11 01:02:36;;;;;;;10.00;6.32;;;;;;;18.71;100.00;101239.63;6229173;28;20374;-73
2023/09/11 01:05:37;;;;;;;8.48;5.38;;;;;;;18.67;100.00;101238.19;6229365;28;20056;-74
2023/09/11 01:08:39;;;;;;;12.02;6.32;;;;;;;18.58;100.00;101223.78;6229243;28;20056;-73
2023/09/11 01:11:41;;;;;;;9.50;5.78;;;;;;;18.52;100.00;101227.75;6229024;28;20374;-73
2023/09/11 01:14:43;;;;;;;9.18;6.15;;;;;;;18.50;100.00;101232.38;6229100;28;20073;-73
2023/09/11 01:17:50;;;;;;;9.70;6.22;;;;;;;18.45;100.00;101221.25;6228987;28;20053;-73
2023/09/11 01:21:27;;;;;;;8.95;6.28;;;;;;;18.43;100.00;101211.66;6229089;28;20054;-73
2023/09/11 01:24:59;;;;;;;10.48;6.20;;;;;;;18.43;100.00;101219.66;6227782;28;20364;-73
2023/09/11 01:28:22;;;;;;;9.10;5.88;;;;;;;18.42;100.00;101218.81;6225447;28;20122;-73
2023/09/11 01:31:28;;;;;;;8.73;6.25;;;;;;;18.36;100.00;101221.13;6228668;28;20604;-73
2023/09/11 01:34:29;;;;;;;14.52;7.38;;;;;;;18.34;100.00;101223.03;6228705;28;20080;-73
2023/09/11 01:37:31;;;;;;;10.73;7.22;;;;;;;18.31;100.00;101224.16;6228755;28;20046;-73
2023/09/11 01:40:36;;;;;;;10.73;7.30;;;;;;;18.27;100.00;101225.34;6228261;28;20045;-73
2023/09/11 01:43:38;;;;;;;11.60;7.32;;;;;;;18.27;100.00;101220.03;6228758;28;20079;-73
2023/09/11 01:46:42;;;;;;;10.52;7.03;;;;;;;18.27;100.00;101224.50;6228393;28;20057;-73
2023/09/11 01:49:45;;;;;;;10.27;6.68;;;;;;;18.26;100.00;101221.00;6228183;28;20057;-73
2023/09/11 01:52:49;;;;;;;10.32;6.65;;;;;;;18.19;100.00;101217.13;6228236;28;20053;-73
2023/09/11 01:55:52;;;;;;;10.65;6.85;;;;;;;18.16;100.00;101209.34;6228456;28;20053;-74
2023/09/11 01:58:56;;;;;;;11.27;6.88;;;;;;;18.14;100.00;101212.16;6227933;28;20057;-73
2023/09/11 02:01:59;;;;;;;11.15;7.25;;;;;;;18.06;100.00;101213.69;6227924;28;20061;-73
2023/09/11 02:05:00;;;;;;;12.95;7.38;;;;;;;18.08;100.00;101209.97;6228037;28;20061;-73
2023/09/11 02:08:01;;;;;;;18.23;7.45;;;;;;;18.05;100.00;101217.34;6227572;28;20041;-73
2023/09/11 02:11:03;;;;;;;12.95;6.75;;;;;;;18.06;100.00;101209.22;6227981;28;20053;-73
2023/09/11 02:14:04;;;;;;;11.27;7.35;;;;;;;18.09;100.00;101213.47;6227835;28;20089;-73
2023/09/11 02:17:07;;;;;;;12.45;7.65;;;;;;;18.02;100.00;101202.44;6227865;28;20050;-73
2023/09/11 02:20:09;;;;;;;10.77;7.05;;;;;;;18.04;100.00;101207.66;6226506;28;20050;-73
2023/09/11 02:23:11;;;;;;;11.43;6.90;;;;;;;18.04;100.00;101199.69;6227805;28;20054;-73
2023/09/11 02:26:12;;;;;;;12.00;6.70;;;;;;;18.00;100.00;101197.25;6227598;28;20054;-73
2023/09/11 02:29:13;;;;;;;10.93;6.82;;;;;;;17.96;100.00;101189.63;6227369;28;20046;-73
2023/09/11 02:32:16;;;;;;;8.95;5.93;;;;;;;18.03;100.00;101192.66;6227420;28;20050;-73
2023/09/11 02:35:17;;;;;;;8.07;5.70;;;;;;;17.93;100.00;101196.03;6227173;28;20052;-73
2023/09/11 02:38:19;;;;;;;9.60;6.53;;;;;;;17.90;100.00;101174.16;6226924;28;20354;-73
2023/09/11 02:41:20;;;;;;;11.35;6.93;;;;;;;17.87;100.00;101183.22;6227156;28;20080;-73
2023/09/11 02:44:21;;;;;;;12.93;7.20;;;;;;;17.79;100.00;101174.97;6227329;28;20061;-73
2023/09/11 02:47:24;;;;;;;10.38;6.88;;;;;;;17.74;100.00;101180.66;6227128;28;20054;-73
2023/09/11 02:50:26;;;;;;;10.55;6.85;;;;;;;17.75;100.00;101179.66;6226910;28;20059;-73
2023/09/11 02:53:27;;;;;;;9.95;7.05;;;;;;;17.71;100.00;101180.00;6227033;28;20050;-73
2023/09/11 02:56:28;;;;;;;11.38;7.40;;;;;;;17.70;100.00;101178.31;6226310;28;20053;-73
2023/09/11 02:59:31;;;;;;;13.95;7.57;;;;;;;17.66;100.00;101177.69;6226406;28;20045;-73
2023/09/11 03:02:33;;;;;;;11.57;6.70;;;;;;;17.66;100.00;101174.19;6226405;28;20050;-73
2023/09/11 03:05:35;;;;;;;10.60;6.93;;;;;;;17.65;100.00;101175.16;6226712;28;20057;-73
2023/09/11 03:08:36;;;;;;;12.70;7.57;;;;;;;17.70;100.00;101176.50;6226343;28;20045;-72
2023/09/11 03:11:37;;;;;;;17.52;8.05;;;;;;;17.71;100.00;101166.69;6226437;28;20354;-73
2023/09/11 03:14:40;;;;;;;13.48;7.63;;;;;;;17.67;100.00;101163.47;6226247;28;20049;-71
2023/09/11 03:17:43;;;;;;;10.13;6.95;;;;;;;17.65;100.00;101159.22;6226453;28;20042;-73
2023/09/11 03:20:44;;;;;;;14.27;7.45;;;;;;;17.59;100.00;101160.53;6226103;28;20046;-73
2023/09/11 03:23:45;;;;;;;10.98;6.75;;;;;;;17.57;100.00;101158.94;6226635;28;20057;-72
2023/09/11 03:26:47;;;;;;;11.35;7.35;;;;;;;17.47;100.00;101161.44;6226375;28;20461;-70
2023/09/11 03:29:51;;;;;;;13.65;7.10;;;;;;;17.49;100.00;101164.84;6226251;28;20050;-73
2023/09/11 03:32:54;;;;;;;10.32;6.00;;;;;;;17.50;100.00;101164.72;6225852;28;20053;-73
2023/09/11 03:35:55;;;;;;;11.82;7.38;;;;;;;17.50;100.00;101169.19;6213316;28;20503;-71
2023/09/11 03:38:57;;;;;;;13.18;7.30;;;;;;;17.47;100.00;101164.09;6217610;28;20042;-72
2023/09/11 03:41:58;;;;;;;13.93;7.43;;;;;;;17.42;100.00;101160.97;6221598;28;20045;-72
2023/09/11 03:45:00;;;;;;;12.43;7.38;;;;;;;17.43;100.00;101157.31;6225875;28;20461;-72
2023/09/11 03:48:03;;;;;;;11.52;6.63;;;;;;;17.39;100.00;101151.38;6225372;28;20046;-72
2023/09/11 03:51:04;;;;;;;12.70;6.93;;;;;;;17.41;100.00;101152.13;6225898;28;20339;-72
2023/09/11 03:54:08;;;;;;;11.27;6.60;;;;;;;17.42;100.00;101142.34;6225661;28;20042;-72
2023/09/11 03:57:09;;;;;;;10.20;6.53;;;;;;;17.38;100.00;101149.69;6214504;28;20461;-72
2023/09/11 04:00:12;;;;;;;8.80;6.32;;;;;;;17.33;100.00;101143.06;6211257;28;20046;-72
2023/09/11 04:03:15;;;;;;;11.23;6.95;;;;;;;17.29;100.00;101141.59;6224286;28;20553;-73
2023/09/11 04:06:16;;;;;;;12.48;7.95;;;;;;;17.31;100.00;101145.84;6225795;28;20054;-73
2023/09/11 04:09:18;;;;;;;10.85;6.88;;;;;;;17.26;100.00;101142.69;6225641;28;20046;-73
2023/09/11 04:12:19;;;;;;;10.65;6.68;;;;;;;17.28;100.00;101142.56;6225605;28;20080;-74
2023/09/11 04:15:20;;;;;;;15.10;7.13;;;;;;;17.24;100.00;101145.44;6225651;28;20193;-73
2023/09/11 04:18:23;;;;;;;13.38;7.18;;;;;;;17.21;100.00;101134.19;6225404;28;20050;-72
2023/09/11 04:21:24;;;;;;;17.35;7.60;;;;;;;17.25;100.00;101139.16;6225442;28;20058;-73
2023/09/11 04:24:26;;;;;;;11.55;6.53;;;;;;;17.24;100.00;101137.47;6225840;28;20046;-73
2023/09/11 04:27:27;;;;;;;14.32;8.40;;;;;;;17.19;100.00;101129.00;6225560;28;20054;-73
2023/09/11 04:30:28;;;;;;;12.05;7.50;;;;;;;17.18;100.00;101131.78;6225419;28;20429;-73
2023/09/11 04:33:31;;;;;;;12.95;7.55;;;;;;;17.15;100.00;101134.66;6212069;28;20358;-72
2023/09/11 04:36:33;;;;;;;12.48;6.82;;;;;;;17.15;100.00;101132.00;6206655;28;20053;-72
2023/09/11 04:39:34;;;;;;;15.63;7.60;;;;;;;17.15;100.00;101132.00;6223336;28;20057;-72
2023/09/11 04:42:37;;;;;;;13.40;7.60;;;;;;;17.19;100.00;101131.66;6225582;28;20056;-72
2023/09/11 04:45:38;;;;;;;11.70;7.20;;;;;;;17.12;100.00;101132.22;6225388;28;20050;-72
2023/09/11 04:48:41;;;;;;;12.00;7.68;;;;;;;17.13;100.00;101128.63;6224986;28;20057;-72
2023/09/11 04:51:42;;;;;;;12.38;7.00;;;;;;;17.07;100.00;101123.75;6225252;28;20057;-72
2023/09/11 04:54:43;;;;;;;12.80;7.75;;;;;;;17.09;100.00;101130.66;6225349;28;20054;-72
2023/09/11 04:57:45;;;;;;;11.70;7.45;;;;;;;17.10;100.00;101132.34;6224780;28;20053;-72
2023/09/11 05:00:46;;;;;;;12.80;6.97;;;;;;;17.08;100.00;101125.44;6229118;28;20055;-72
2023/09/11 05:03:49;;;;;;;17.85;8.02;;;;;;;17.13;100.00;101131.28;6223630;28;20053;-72
2023/09/11 05:06:50;;;;;;;10.45;6.60;;;;;;;17.14;100.00;101132.97;6229368;28;20058;-72
2023/09/11 05:09:52;;;;;;;12.25;6.93;;;;;;;17.17;100.00;101130.94;6220515;28;20050;-72
2023/09/11 05:12:53;;;;;;;14.13;6.82;;;;;;;17.16;100.00;101131.88;6210023;28;20050;-72
2023/09/11 05:15:54;;;;;;;11.60;6.65;;;;;;;17.18;100.00;101131.78;6205047;28;20054;-72
2023/09/11 05:18:57;;;;;;;11.00;6.88;;;;;;;17.16;100.00;101129.22;6220116;28;20427;-72
2023/09/11 05:21:59;;;;;;;14.55;6.25;;;;;;;17.10;100.00;101126.19;6228689;28;20075;-72
2023/09/11 05:25:00;;;;;;;10.30;6.45;;;;;;;17.09;100.00;101121.84;6229079;28;20446;-72
2023/09/11 05:28:02;;;;;;;12.48;7.82;;;;;;;17.15;100.00;101124.88;6228511;28;20053;-72
2023/09/11 05:31:05;;;;;;;11.48;6.57;;;;;;;17.16;100.00;101125.72;6228830;28;20049;-72
2023/09/11 05:34:07;;;;;;;12.95;7.05;;;;;;;17.13;100.00;101123.31;6228601;28;20056;-73
2023/09/11 05:37:09;;;;;;;12.63;6.05;;;;;;;17.11;100.00;101120.75;6228819;28;20057;-72
2023/09/11 05:40:11;;;;;;;14.02;7.00;;;;;;;17.17;100.00;101124.78;6228083;28;20050;-72
2023/09/11 05:43:12;;;;;;;14.40;7.68;;;;;;;17.18;100.00;101124.66;6228653;28;20065;-72
2023/09/11 05:46:14;;;;;;;11.32;6.75;;;;;;;17.19;100.00;101118.38;6228439;28;20053;-72
2023/09/11 05:49:16;;;;;;;12.65;6.30;;;;;;;17.25;100.00;101120.56;6228248;28;20056;-72
2023/09/11 05:52:18;;;;;;;11.70;6.70;;;;;;;17.32;100.00;101115.63;6228208;28;20361;-73
2023/09/11 05:55:19;;;;;;;10.18;5.75;;;;;;;17.41;100.00;101106.97;6228025;28;20125;-72
2023/09/11 05:58:21;;;;;;;12.48;7.75;;;;;;;17.47;100.00;101108.31;6227936;28;20054;-72
2023/09/11 06:01:22;;;;;;;12.27;6.95;;;;;;;17.46;100.00;101122.56;6227851;28;20054;-72
2023/09/11 06:04:25;;;;;;;12.98;7.55;;;;;;;17.50;100.00;101121.38;6227957;28;20054;-72
2023/09/11 06:07:26;;;;;;;17.13;9.48;;;;;;;17.49;100.00;101127.66;6227882;28;20060;-72
2023/09/11 06:10:27;;;;;;;14.57;7.82;;;;;;;17.57;100.00;101124.38;6227318;28;21343;-72
2023/09/11 06:13:31;;;;;;;14.35;8.23;;;;;;;17.54;100.00;101119.34;6227798;28;20050;-72
2023/09/11 06:16:32;;;;;;;12.05;7.22;;;;;;;17.61;100.00;101128.50;6227810;28;20060;-72
2023/09/11 06:19:35;;;;;;;14.55;8.20;;;;;;;17.67;100.00;101125.41;6227045;28;20072;-72
2023/09/11 06:22:36;;;;;;;15.93;9.27;;;;;;;17.74;100.00;101126.63;6227307;28;20069;-72
2023/09/11 06:25:38;;;;;;;15.20;8.27;;;;;;;17.82;100.00;101131.38;6227454;28;20050;-72
2023/09/11 06:28:39;;;;;;;12.82;8.48;;;;;;;17.79;100.00;101131.59;6227106;28;20050;-72
2023/09/11 06:31:40;;;;;;;13.93;8.85;;;;;;;17.85;100.00;101129.31;6227336;28;20469;-73
2023/09/11 06:34:43;;;;;;;11.80;7.00;;;;;;;17.92;100.00;101132.34;6227222;28;20050;-73
2023/09/11 06:37:45;;;;;;;11.80;7.40;;;;;;;18.00;100.00;101127.28;6227152;28;20434;-72
2023/09/11 06:40:46;;;;;;;14.93;8.52;;;;;;;18.07;100.00;101127.63;6226863;28;20053;-72
2023/09/11 06:43:47;;;;;;;15.32;8.40;;;;;;;18.13;100.00;101121.84;6227228;28;20057;-72
2023/09/11 06:46:49;;;;;;;12.95;6.55;;;;;;;18.16;100.00;101126.88;6225732;28;20057;-73
2023/09/11 06:49:51;;;;;;;15.60;8.75;;;;;;;18.21;100.00;101122.03;6215693;28;20053;-73
2023/09/11 06:52:53;;;;;;;13.05;7.13;;;;;;;18.23;100.00;101118.31;6222032;28;20050;-73
2023/09/11 06:55:55;;;;;;;10.63;6.47;;;;;;;18.29;100.00;101118.78;6226484;28;20050;-72
2023/09/11 06:58:56;;;;;;;9.18;6.03;;;;;;;18.39;100.00;101117.06;6226341;28;20172;-73
2023/09/11 07:01:58;;;;;;;9.45;5.60;;;;;;;18.46;100.00;101118.28;6257634;22;20056;-70
2023/09/11 07:05:01;;;;;;;11.73;6.85;;;;;;;18.40;100.00;101116.97;6265613;28;20059;-70
2023/09/11 07:08:02;;;;;;;8.48;5.57;;;;;;;18.44;100.00;101120.22;6275594;28;20053;-69
2023/09/11 07:11:03;;;;;;;12.77;7.43;;;;;;;18.46;100.00;101121.78;6275391;28;20048;-70
2023/09/11 07:14:08;;;;;;;15.65;7.95;;;;;;;18.55;100.00;101120.22;6275641;28;20049;-69
2023/09/11 07:17:10;;;;;;;12.63;7.18;;;;;;;18.66;100.00;101114.84;6275729;28;20187;-70
2023/09/11 07:20:13;;;;;;;11.00;6.90;;;;;;;18.69;100.00;101114.63;6243010;28;20056;-70
2023/09/11 07:23:14;;;;;;;9.80;5.43;;;;;;;18.76;100.00;101112.34;6241482;28;20045;-70
2023/09/11 07:26:16;;;;;;;16.17;6.88;;;;;;;18.79;100.00;101111.22;6253107;28;20052;-70
2023/09/11 07:29:17;;;;;;;10.05;6.20;;;;;;;18.85;100.00;101114.25;6256630;28;20052;-70
2023/09/11 07:32:19;;;;;;;16.27;6.07;;;;;;;18.96;100.00;101108.84;6250501;28;20056;-70
2023/09/11 07:35:22;;;;;;;11.85;6.13;;;;;;;19.05;100.00;101112.56;6260710;28;20049;-70
2023/09/11 07:38:23;;;;;;;12.35;6.70;;;;;;;19.18;100.00;101115.91;6265590;28;20130;-70
2023/09/11 07:41:25;;;;;;;8.73;5.30;;;;;;;19.29;100.00;101103.50;6274005;28;20567;-71
2023/09/11 07:44:26;;;;;;;9.18;6.00;;;;;;;19.34;100.00;101104.78;6263644;28;20041;-71
2023/09/11 07:47:28;;;;;;;7.22;5.30;;;;;;;19.42;100.00;101104.16;6255010;28;20060;-70
2023/09/11 07:50:30;;;;;;;11.13;6.60;;;;;;;19.50;100.00;101104.34;6250776;28;20053;-71
2023/09/11 07:53:32;;;;;;;11.23;5.57;;;;;;;19.61;100.00;101104.28;6272450;28;20045;-71
2023/09/11 07:56:34;;;;;;;9.15;5.78;;;;;;;19.71;100.00;101105.22;6272939;28;20057;-71
2023/09/11 07:59:35;;;;;;;11.05;6.93;;;;;;;19.76;100.00;101107.50;6272550;28;20083;-70
2023/09/11 08:02:37;;;;;;;9.57;6.00;;;;;;;19.87;100.00;101098.53;6273482;28;20048;-71
2023/09/11 08:05:39;;;;;;;8.45;5.45;;;;;;;19.89;100.00;101092.09;6274383;28;20052;-69
2023/09/11 08:08:41;;;;;;;10.02;5.78;;;;;;;19.92;100.00;101096.31;6274877;28;20063;-69
2023/09/11 08:11:42;;;;;;;10.27;6.13;;;;;;;20.08;100.00;101090.50;6274798;28;20337;-71
2023/09/11 08:14:44;;;;;;;8.32;5.10;;;;;;;20.08;100.00;101080.66;6275147;28;20049;-71
2023/09/11 08:17:45;;;;;;;8.30;5.07;;;;;;;20.15;100.00;101078.28;6274870;28;20053;-69
2023/09/11 08:20:49;;;;;;;8.75;5.20;;;;;;;20.25;100.00;101073.81;6274486;28;20045;-70
2023/09/11 08:23:51;;;;;;;9.13;5.53;;;;;;;20.35;100.00;101072.03;6274849;28;20060;-70
2023/09/11 08:26:52;;;;;;;9.52;5.65;;;;;;;20.38;100.00;101077.09;6274727;28;20451;-70
2023/09/11 08:29:55;;;;;;;6.82;4.80;;;;;;;20.45;100.00;101080.91;6274569;28;20048;-70
2023/09/11 08:32:58;;;;;;;7.90;4.70;;;;;;;20.48;100.00;101086.00;6277022;28;20458;-70
2023/09/11 08:36:01;;;;;;;9.32;5.10;;;;;;;20.52;100.00;101092.75;6279387;28;20377;-70
2023/09/11 08:39:02;;;;;;;8.38;5.03;;;;;;;20.62;100.00;101086.56;6278991;28;20053;-70
2023/09/11 08:42:05;;;;;;;7.85;5.18;;;;;;;20.76;100.00;101087.03;6279279;28;20049;-71
2023/09/11 08:45:07;;;;;;;9.48;4.68;;;;;;;20.91;100.00;101083.94;6279497;28;20433;-71
2023/09/11 08:48:12;;;;;;;10.88;4.25;;;;;;;20.99;100.00;101090.28;6278868;28;20071;-71
2023/09/11 08:51:22;;;;;;;11.25;4.93;;;;;;;21.16;100.00;101086.03;6278878;28;20352;-69
2023/09/11 08:54:30;;;;;;;8.52;4.72;;;;;;;21.23;100.00;101078.28;6279112;28;20049;-68
2023/09/11 08:57:33;;;;;;;6.80;4.13;;;;;;;21.33;100.00;101079.16;6278820;28;20045;-68
2023/09/11 09:00:35;;;;;;;9.85;4.20;;;;;;;21.41;100.00;101071.25;6278548;28;20044;-68
2023/09/11 09:03:39;;;;;;;11.93;4.30;;;;;;;21.53;100.00;101072.78;6278597;28;20053;-69
2023/09/11 09:06:42;;;;;;;6.65;4.28;;;;;;;21.72;100.00;101066.53;6278874;28;20102;-69
2023/09/11 09:09:44;;;;;;;12.23;4.47;;;;;;;21.72;100.00;101073.72;6278508;28;20433;-69
2023/09/11 09:12:45;;;;;;;8.65;3.95;;;;;;;21.79;100.00;101066.78;6278399;28;20049;-68
2023/09/11 09:15:47;;;;;;;7.60;4.60;;;;;;;21.85;100.00;101066.19;6278605;28;20060;-68
2023/09/11 09:18:49;;;;;;;6.65;4.15;;;;;;;21.86;100.00;101061.69;6278123;28;20078;-71
2023/09/11 09:22:13;;;;;;;11.68;4.50;;;;;;;21.89;100.00;101056.03;6278492;28;20049;-69
2023/09/11 09:25:15;;;;;;;7.22;3.63;;;;;;;21.91;100.00;101048.69;6272540;28;20606;-71
2023/09/11 09:28:28;;;;;;;7.68;4.45;;;;;;;22.01;100.00;101052.16;6277967;28;20056;-70
2023/09/11 09:31:31;;;;;;;9.07;4.43;;;;;;;22.10;100.00;101061.16;6277975;28;20088;-70
2023/09/11 09:34:33;;;;;;;9.88;4.45;;;;;;;22.19;100.00;101058.44;6278246;28;20060;-70
2023/09/11 09:37:37;;;;;;;10.43;5.05;;;;;;;22.34;100.00;101061.44;6278148;28;20449;-70
2023/09/11 09:40:40;;;;;;;8.45;4.15;;;;;;;22.38;100.00;101059.31;6277518;28;20075;-70
2023/09/11 09:43:52;;;;;;;13.30;4.18;;;;;;;22.58;100.00;101047.50;6276998;28;20073;-71
2023/09/11 09:46:53;;;;;;;8.88;4.18;;;;;;;22.79;100.00;101045.31;6277890;28;20052;-69
2023/09/11 09:49:56;;;;;;;6.47;4.60;;;;;;;22.75;100.00;101043.94;6277347;28;20052;-71
2023/09/11 09:52:59;;;;;;;8.00;3.63;;;;;;;22.76;100.00;101028.75;6277720;28;20053;-71
2023/09/11 09:56:03;;;;;;;8.63;4.35;;;;;;;22.80;100.00;101038.16;6277353;28;20448;-71
2023/09/11 09:59:04;;;;;;;7.05;4.03;;;;;;;22.94;100.00;101034.97;6277245;28;20045;-71
2023/09/11 10:02:10;;;;;;;11.38;3.85;;;;;;;23.12;100.00;101026.88;6277130;28;20045;-71
2023/09/11 10:05:13;;;;;;;9.20;3.65;;;;;;;23.42;100.00;101017.50;6277453;28;20045;-70
2023/09/11 10:08:16;;;;;;;7.68;3.55;;;;;;;23.46;100.00;101026.09;6276870;28;20084;-71
2023/09/11 10:11:26;;;;;;;10.50;4.05;;;;;;;23.76;100.00;101028.31;6276923;28;20060;-70
2023/09/11 10:14:28;;;;;;;11.02;4.70;;;;;;;23.71;100.00;101019.03;6277021;28;20052;-71
2023/09/11 10:17:31;;;;;;;8.40;4.28;;;;;;;23.77;100.00;101018.41;6277002;28;20059;-71
2023/09/11 10:20:33;;;;;;;10.95;4.20;;;;;;;23.85;100.00;101015.75;6276568;28;20049;-71
2023/09/11 10:23:36;;;;;;;15.38;4.07;;;;;;;24.04;100.00;101006.59;6276553;28;20060;-71
2023/09/11 10:26:44;;;;;;;12.15;3.88;;;;;;;24.14;100.00;101018.03;6276669;28;20060;-71
2023/09/11 10:29:51;;;;;;;9.63;4.15;;;;;;;24.28;100.00;101008.50;6276462;28;20357;-70
2023/09/11 10:32:59;;;;;;;8.85;3.72;;;;;;;24.37;100.00;101009.38;6276548;28;20045;-71
2023/09/11 10:36:05;;;;;;;14.80;3.58;;;;;;;24.35;100.00;101004.16;6276465;28;20057;-71
2023/09/11 10:39:10;;;;;;;8.73;3.28;;;;;;;24.55;100.00;100996.63;6276224;28;20040;-71
2023/09/11 10:42:12;;;;;;;9.63;3.80;;;;;;;24.63;100.00;100993.97;6276195;28;20045;-71
2023/09/11 10:45:27;;;;;;;10.35;3.50;;;;;;;24.76;100.00;100986.25;6276408;28;20056;-71
2023/09/11 10:48:30;;;;;;;10.75;3.50;;;;;;;25.03;100.00;100984.22;6275899;28;20049;-71
2023/09/11 10:51:34;;;;;;;18.13;3.80;;;;;;;25.25;100.00;100983.53;6276261;28;20052;-71
2023/09/11 10:54:37;;;;;;;15.10;4.07;;;;;;;25.27;100.00;100980.66;6276057;28;20460;-71
2023/09/11 10:57:38;;;;;;;12.93;4.57;;;;;;;25.25;100.00;100972.78;6276085;28;20049;-71
2023/09/11 11:00:39;;;;;;;11.70;3.40;;;;;;;25.46;100.00;100980.25;6275671;28;20045;-71
2023/09/11 11:03:42;;;;;;;6.47;3.53;;;;;;;25.42;100.00;100972.69;6275827;28;20124;-71
2023/09/11 11:06:45;;;;;;;13.90;3.65;;;;;;;25.57;100.00;100976.34;6275916;28;20057;-71
2023/09/11 11:09:49;;;;;;;14.25;3.80;;;;;;;25.59;100.00;100974.31;6275774;28;20060;-71
2023/09/11 11:13:05;;;;;;;11.15;4.18;;;;;;;25.60;100.00;100967.09;6275812;28;20053;-71
2023/09/11 11:16:28;;;;;;;11.82;4.10;;;;;;;25.73;100.00;100968.22;6276081;28;20106;-71
2023/09/11 11:19:31;;;;;;;9.88;3.05;;;;;;;25.88;100.00;100957.56;6269113;28;20448;-71
2023/09/11 11:22:34;;;;;;;7.20;3.00;;;;;;;25.97;100.00;100951.09;6275719;28;20056;-71
2023/09/11 11:25:40;;;;;;;10.00;3.13;;;;;;;26.08;100.00;100957.13;6275546;28;20049;-71
2023/09/11 11:28:45;;;;;;;10.30;2.42;;;;;;;26.32;100.00;100965.03;6275429;28;20131;-69
2023/09/11 11:31:49;;;;;;;12.80;3.58;;;;;;;26.55;100.00;100957.81;6275403;28;20056;-71
2023/09/11 11:34:51;;;;;;;14.13;3.13;;;;;;;26.84;100.00;100958.06;6275538;28;20052;-68
2023/09/11 11:37:53;;;;;;;13.82;2.83;;;;;;;27.01;100.00;100954.19;6275198;28;20060;-68
2023/09/11 11:40:57;;;;;;;12.98;3.03;;;;;;;27.20;100.00;100952.84;6275289;28;20104;-71
2023/09/11 11:43:59;;;;;;;7.30;2.33;;;;;;;27.41;100.00;100944.84;6275852;28;20433;-68
2023/09/11 11:47:00;;;;;;;8.18;3.78;;;;;;;27.66;100.00;100949.91;6275189;28;20055;-69
2023/09/11 11:50:08;;;;;;;4.65;2.15;;;;;;;27.89;100.00;100949.81;6274956;28;20052;-68
2023/09/11 11:53:14;;;;;;;6.30;2.58;;;;;;;27.99;100.00;100948.50;6275102;28;20064;-69
2023/09/11 11:56:17;;;;;;;8.68;2.83;;;;;;;28.22;100.00;100948.31;6274223;28;20059;-69
2023/09/11 11:59:19;;;;;;;7.18;2.83;;;;;;;28.34;100.00;100940.50;6234935;28;20061;-69
2023/09/11 12:02:21;;;;;;;14.05;2.70;;;;;;;28.56;100.00;100944.09;6244579;28;20053;-69
2023/09/11 12:05:22;;;;;;;5.38;3.03;;;;;;;28.71;100.00;100949.44;6250277;28;20057;-69
2023/09/11 12:08:24;;;;;;;9.70;3.03;;;;;;;28.94;100.00;100941.91;6253618;28;20052;-69
2023/09/11 12:11:27;;;;;;;8.55;2.70;;;;;;;29.14;100.00;100933.09;6255208;28;20045;-73
2023/09/11 12:14:28;;;;;;;14.02;3.65;;;;;;;29.08;100.00;100939.31;6255338;28;20052;-73
2023/09/11 12:17:30;;;;;;;3.40;2.47;;;;;;;29.29;100.00;100931.91;6255064;28;20045;-75
2023/09/11 12:20:31;;;;;;;5.72;2.72;;;;;;;29.39;100.00;100928.88;6254864;28;20045;-73
2023/09/11 12:23:33;;;;;;;10.00;2.92;;;;;;;29.59;100.00;100928.97;6254996;28;20050;-73
2023/09/11 12:26:37;;;;;;;8.55;2.88;;;;;;;29.80;100.00;100925.31;6254858;28;20049;-73
2023/09/11 12:29:40;;;;;;;14.75;2.95;;;;;;;29.71;88.38;100923.84;6254706;28;20056;-73
2023/09/11 12:32:41;;;;;;;12.35;3.53;;;;;;;29.79;90.36;100915.50;6254735;28;20046;-74
2023/09/11 12:35:43;;;;;;;7.88;3.72;;;;;;;29.94;91.47;100923.47;6254589;28;20449;-73
2023/09/11 12:38:46;;;;;;;18.08;3.20;;;;;;;30.02;72.46;100921.41;6254382;28;20053;-73
2023/09/11 12:41:49;;;;;;;7.18;3.58;;;;;;;29.98;73.27;100922.03;6255001;28;20056;-72
2023/09/11 12:44:51;;;;;;;4.15;2.22;;;;;;;30.10;70.72;100925.78;6254463;28;20057;-73
2023/09/11 12:47:52;;;;;;;6.28;3.13;;;;;;;30.33;64.78;100926.28;6254504;28;20060;-73
2023/09/11 12:50:54;;;;;;;7.82;2.45;;;;;;;30.49;63.15;100921.50;6254368;28;20049;-75
2023/09/11 12:53:57;;;;;;;9.05;2.47;;;;;;;30.60;60.38;100918.13;6254362;28;20049;-73
2023/09/11 12:57:00;;;;;;;7.30;2.85;;;;;;;30.66;59.31;100917.31;6254342;28;20049;-73
2023/09/11 13:00:05;;;;;;;10.20;2.35;;;;;;;30.66;58.33;100924.59;6254154;28;20437;-73
2023/09/11 13:03:07;;;;;;;7.28;2.85;;;;;;;30.91;58.90;100917.53;6254229;28;20049;-73
2023/09/11 13:06:08;;;;;;;6.95;2.38;;;;;;;30.93;56.91;100911.88;6240494;28;20103;-72
2023/09/11 13:09:10;;;;;;;6.75;2.55;;;;;;;31.01;55.73;100911.66;6259924;28;20041;-75
2023/09/11 13:12:13;;;;;;;8.20;2.53;;;;;;;31.06;53.58;100909.97;6267249;28;20057;-74
2023/09/11 13:15:15;;;;;;;6.38;2.55;;;;;;;31.21;55.26;100898.03;6252585;28;20049;-72
2023/09/11 13:18:16;;;;;;;8.88;3.13;;;;;;;31.54;53.16;100900.66;6262366;28;20048;-74
2023/09/11 13:21:18;;;;;;;7.18;2.08;;;;;;;31.45;52.61;100896.50;6278338;28;20452;-76
2023/09/11 13:24:19;;;;;;;5.40;2.42;;;;;;;31.43;52.85;100887.72;6262502;28;20365;-74
2023/09/11 13:27:22;;;;;;;7.15;3.05;;;;;;;31.63;51.59;100888.47;6267678;28;20048;-74
2023/09/11 13:30:23;;;;;;;4.95;2.38;;;;;;;31.65;52.51;100891.81;6277954;28;20071;-72
2023/09/11 13:33:25;;;;;;;6.63;2.63;;;;;;;31.72;50.44;100889.06;6268621;28;20045;-75
2023/09/11 13:36:26;;;;;;;7.13;2.47;;;;;;;31.66;50.49;100885.34;6278289;28;20054;-72
2023/09/11 13:39:28;;;;;;;6.63;2.53;;;;;;;31.80;52.09;100873.34;6277783;28;20049;-74
2023/09/11 13:42:30;;;;;;;6.97;2.38;;;;;;;31.98;49.71;100882.66;6269572;28;20374;-76
2023/09/11 13:45:32;;;;;;;4.85;2.30;;;;;;;32.25;50.31;100881.41;6276872;28;20051;-75
2023/09/11 13:48:33;;;;;;;9.88;2.40;;;;;;;31.60;49.21;100878.03;6278695;28;20352;-74
2023/09/11 13:51:35;;;;;;;7.05;2.45;;;;;;;32.10;51.05;100878.16;6271022;28;20052;-74
2023/09/11 13:54:36;;;;;;;8.43;2.47;;;;;;;31.96;49.37;100868.44;6269754;28;20048;-75
2023/09/11 13:57:39;;;;;;;8.75;2.60;;;;;;;32.13;49.24;100874.19;6277644;28;20079;-74